Annette Island, AK

1:42 PM AKDT on July 23, 2014 (GMT -0800)
Metlakatla (PAMM) Elev 0 ft | 55.13 °N, 131.58 °W | Change Station

Current weather conditions updated 5 hours ago

Partly Cloudy
Partly Cloudy
57 °F
Feels Like 57 °F
N
7
Wind Variable Wind from WSW

Today is forecast to be Warmer than yesterday.

Today
High -- | Low -- °F
--% Chance of Precip.
Yesterday
High -- | Low -- °F
Precip. -- in
4:39 AM 9:04 PM
Waning Crescent, 8% visible
Pressure 30.11 in
Visibility 10.0 miles
Clouds Few 900 ft
Dew Point 54 °F
Humidity 88%
Rainfall 0.00 in
Snow Depth Not available.
UV 3 out of 12
Pollen Not available.
Air Quality Not available.
Flu Activity Not available.
METAR PAMM 231616Z AUTO 25006KT 10SM FEW009 14/12 A3011 RMK AO1

More Conditions Fewer Conditions

Pressure 30.11 in
Visibility 10.0 miles
Clouds Few 900 ft
Dew Point 54 °F
Humidity 88%
Rainfall 0.00 in
Snow Depth Not available.
UV 3 out of 12
Pollen Not available.
Air Quality Not available.
Flu Activity Not available.
METAR PAMM 231616Z AUTO 25006KT 10SM FEW009 14/12 A3011 RMK AO1

More Conditions Fewer Conditions

10-Day Weather Forecast

Almanac

Astronomy

Jul. 23, 2014 Rise Set
Actual Time 4:39 AM AKDT 9:04 PM AKDT
Civil Twilight 3:50 AM AKDT 9:54 PM AKDT
Nautical Twilight 2:31 AM AKDT 11:10 PM AKDT
Astronomical Twilight 1:25 AM AKDT 12:20 AM AKDT
Moon 2:09 AM AKDT 6:34 PM AKDT
Length of Visible Light 18h 04m
Length of Day
16h 24m
Tomorrow will be 3m 16s shorter.
Waning Crescent, 8% of the Moon is Illuminated
Today
Waning Crescent
Jul 26
New
Aug 3
First Quarter
Aug 10
Full
Aug 17
Last Quarter

Today's Extremes

State Highs State Lows

Community

WunderPhotos

Upload Photos

1,736,797 photos uploaded!

Nearby

Snow Depth

Station Depth Elevation
Long Lake 0 in 820 ft
Upper Tsaina River 0 in 1750 ft
Nuka Glacier 25 in 1250 ft
Grouse Creek Divide 0 in 700 ft
Grandview 2 in 1100 ft

Earthquake Activity

City Distance Mag. Time & Date
No recent earthquake activity has been reported nearby.
Minimum magnitude displayed is 2.5.

Coastal Water Temperatures

Place Temperature
No Stations Reporting

Nearby Weather Stations

Station Location Temp. Dew Point Humidity Wind Precip. Elev Updated Type
CRN NOAA/NWS ANNETTE ISLAND 6 S AK , Metlakatla, AK 66 °F - - North  at  - 0.00 in / hr 104 ft 12:30 PM AKDT MADIS
Bailey Blvd, Ketchikan, AK 69.7 °F 54 °F 57% South  at  2.0 mph 0.00 in / hr 240 ft 1:40 PM AKDT Normal
MARITIME , Douglas, AK 60 °F 52 °F 76% North  at  16 mph 0.00 in / hr 0 ft 11:00 AM AKDT MADIS

Show More Stations Show Fewer Stations